createdAt,value
2018-06-16T00:00:55.313Z,100017.29
2018-06-16T00:03:22.973Z,100010.11
2018-06-16T00:05:50.592Z,100016.77
2018-06-16T00:08:18.157Z,100011.77
2018-06-16T00:10:46.022Z,100015.95
2018-06-16T00:13:13.636Z,100010.33
2018-06-16T00:15:41.242Z,100012.05
2018-06-16T00:18:08.858Z,100013.72
2018-06-16T00:20:36.465Z,100011.22
2018-06-16T00:23:04.145Z,100012.88
2018-06-16T00:25:31.816Z,100017.18
2018-06-16T00:27:59.420Z,100012.56
2018-06-16T00:30:27.066Z,100011.70
2018-06-16T00:32:54.705Z,100016.36
2018-06-16T00:35:22.877Z,100015.03
2018-06-16T00:37:50.559Z,100013.70
2018-06-16T00:40:18.169Z,100010.73
2018-06-16T00:42:46.654Z,100013.05
2018-06-16T00:45:14.344Z,100009.56
2018-06-16T00:47:42.221Z,100002.75
2018-06-16T00:50:09.788Z,100007.41
2018-06-16T00:52:37.373Z,100006.08
2018-06-16T00:55:05.329Z,100009.70
2018-06-16T00:57:44.216Z,100008.23
2018-06-16T01:00:11.820Z,100006.59
2018-06-16T01:02:39.942Z,100008.56
2018-06-16T01:05:07.633Z,100008.38
2018-06-16T01:07:36.381Z,100006.72
2018-06-16T01:10:04.308Z,100004.72
2018-06-16T01:12:31.899Z,99999.91
2018-06-16T01:14:59.483Z,100000.55
2018-06-16T01:17:27.059Z,100004.12
2018-06-16T01:19:54.762Z,100000.34
2018-06-16T01:22:22.318Z,99999.92
2018-06-16T01:24:49.958Z,99998.75
2018-06-16T01:27:17.540Z,100001.09
2018-06-16T01:29:45.170Z,99999.28
2018-06-16T01:32:12.866Z,99998.98
2018-06-16T01:34:40.496Z,99996.48
2018-06-16T01:37:08.148Z,99996.97
2018-06-16T01:39:36.056Z,99992.33
2018-06-16T01:42:03.720Z,99995.84
2018-06-16T01:44:31.328Z,99997.33
2018-06-16T01:46:58.941Z,99990.52
2018-06-16T01:49:26.549Z,99992.03
2018-06-16T01:51:54.141Z,99988.88
2018-06-16T01:54:21.765Z,99986.90
2018-06-16T01:56:49.358Z,99989.23
2018-06-16T01:59:16.954Z,99982.24
2018-06-16T02:01:44.528Z,99985.92
2018-06-16T02:04:12.161Z,99985.25
2018-06-16T02:06:40.285Z,99980.77
2018-06-16T02:09:09.941Z,99989.23
2018-06-16T02:11:37.861Z,99983.75
2018-06-16T02:14:05.571Z,99980.92
2018-06-16T02:16:33.211Z,99983.77
2018-06-16T02:19:00.809Z,99980.28
2018-06-16T02:21:28.397Z,99979.94
2018-06-16T02:23:56.007Z,99977.28
2018-06-16T02:26:23.568Z,99976.78
2018-06-16T02:28:51.162Z,99976.63
2018-06-16T02:31:18.758Z,99971.63
2018-06-16T02:33:46.331Z,99969.47
2018-06-16T02:36:14.017Z,99970.14
2018-06-16T02:38:41.686Z,99970.33
2018-06-16T02:41:09.378Z,99964.19
2018-06-16T02:43:36.977Z,99964.70
2018-06-16T02:46:04.640Z,99960.88
2018-06-16T02:48:32.253Z,99955.87
2018-06-16T02:50:59.846Z,99964.81
2018-06-16T02:53:27.411Z,99960.88
2018-06-16T02:55:55.040Z,99961.86
2018-06-16T02:58:22.701Z,99956.21
2018-06-16T03:00:50.285Z,99957.03
2018-06-16T03:03:17.957Z,99959.69
2018-06-16T03:05:45.819Z,99961.02
2018-06-16T03:08:13.345Z,99961.03
2018-06-16T03:10:40.973Z,99964.03
2018-06-16T03:13:08.641Z,99960.20
2018-06-16T03:15:36.171Z,99961.00
2018-06-16T03:18:03.993Z,99959.17
2018-06-16T03:20:38.564Z,99957.83
2018-06-16T03:23:06.288Z,99956.19
2018-06-16T03:25:34.378Z,99958.17
2018-06-16T03:28:01.997Z,99958.19
2018-06-16T03:30:29.710Z,99959.19
2018-06-16T03:32:57.449Z,99951.52
2018-06-16T03:35:25.058Z,99959.51
2018-06-16T03:37:52.671Z,99959.64
2018-06-16T03:40:20.333Z,99960.29
2018-06-16T03:42:47.933Z,99957.81
2018-06-16T03:45:15.556Z,99965.28
2018-06-16T03:47:43.229Z,99966.28
2018-06-16T03:50:11.593Z,99962.80
2018-06-16T03:52:39.511Z,99955.83
2018-06-16T03:55:07.065Z,99965.77
2018-06-16T03:57:34.761Z,99963.63
2018-06-16T04:00:02.443Z,99966.22
2018-06-16T04:02:30.157Z,99963.70
2018-06-16T04:04:57.824Z,99972.16
2018-06-16T04:07:25.459Z,99969.82
2018-06-16T04:09:53.100Z,99969.82
2018-06-16T04:12:21.176Z,99969.80
2018-06-16T04:14:48.746Z,99973.13
2018-06-16T04:17:18.712Z,99965.65
2018-06-16T04:19:47.348Z,99975.77
2018-06-16T04:22:14.987Z,99976.56
2018-06-16T04:24:42.858Z,99975.91
2018-06-16T04:27:10.437Z,99980.36
2018-06-16T04:29:38.297Z,99978.17
2018-06-16T04:32:06.067Z,99978.60
2018-06-16T04:34:34.118Z,99977.41
2018-06-16T04:37:01.909Z,99977.06
2018-06-16T04:39:29.534Z,99978.48
2018-06-16T04:41:57.212Z,99979.48
2018-06-16T04:44:25.410Z,99982.27
2018-06-16T04:46:53.014Z,99974.57
2018-06-16T04:49:20.630Z,99979.55
2018-06-16T04:51:48.361Z,99989.12
2018-06-16T04:54:15.997Z,99989.28
2018-06-16T04:56:43.658Z,99992.45
2018-06-16T04:59:11.229Z,99991.91
2018-06-16T05:01:38.897Z,99989.03
2018-06-16T05:04:06.525Z,99992.36
2018-06-16T05:06:34.155Z,99988.69
2018-06-16T05:09:01.777Z,99985.70
2018-06-16T05:11:29.426Z,99988.86
2018-06-16T05:13:57.026Z,99985.31
2018-06-16T05:16:24.638Z,99985.47
2018-06-16T05:18:52.224Z,99986.25
2018-06-16T05:21:19.800Z,99988.52
2018-06-16T05:23:47.379Z,99988.88
2018-06-16T05:26:14.948Z,99986.20
2018-06-16T05:28:42.586Z,99987.35
2018-06-16T05:31:10.174Z,99993.52
2018-06-16T05:33:37.744Z,99993.70
2018-06-16T05:36:05.385Z,99992.41
2018-06-16T05:38:33.298Z,99994.84
2018-06-16T05:41:00.965Z,99989.88
2018-06-16T05:43:28.809Z,99997.14
2018-06-16T05:45:56.359Z,99997.92
2018-06-16T05:48:23.953Z,99994.58
2018-06-16T05:50:51.621Z,99992.17
2018-06-16T05:53:19.235Z,99993.77
2018-06-16T05:55:46.814Z,99992.70
2018-06-16T05:58:14.746Z,99994.94
2018-06-16T06:00:42.343Z,99996.27
2018-06-16T06:03:09.955Z,99998.77
2018-06-16T06:05:37.636Z,99989.55
2018-06-16T06:08:05.264Z,99998.52
2018-06-16T06:10:32.898Z,99999.37
2018-06-16T06:13:01.258Z,100000.88
2018-06-16T06:15:28.876Z,100005.50
2018-06-16T06:17:56.474Z,100004.03
2018-06-16T06:20:24.090Z,100003.02
2018-06-16T06:22:51.920Z,100004.91
2018-06-16T06:25:19.581Z,100010.81
2018-06-16T06:27:47.234Z,100009.67
2018-06-16T06:30:14.886Z,100019.15
2018-06-16T06:32:42.485Z,100013.52
2018-06-16T06:35:10.164Z,100014.72
2018-06-16T06:37:37.877Z,100012.81
2018-06-16T06:40:05.871Z,100011.30
2018-06-16T06:42:33.529Z,100013.55
2018-06-16T06:45:01.409Z,100015.20
2018-06-16T06:47:29.040Z,100015.55
2018-06-16T06:49:56.607Z,100018.61
2018-06-16T06:52:24.205Z,100016.75
2018-06-16T06:54:52.191Z,100013.66
2018-06-16T06:57:20.708Z,100016.52
2018-06-16T06:59:48.381Z,100011.53
2018-06-16T07:02:15.954Z,100017.02
2018-06-16T07:04:43.525Z,100014.69
2018-06-16T07:07:11.308Z,100019.72
2018-06-16T07:09:38.990Z,100010.42
2018-06-16T07:12:06.575Z,100010.66
2018-06-16T07:14:34.167Z,100006.78
2018-06-16T07:17:01.751Z,100005.12
2018-06-16T07:19:29.323Z,100005.10
2018-06-16T07:21:56.932Z,99999.24
2018-06-16T07:24:24.531Z,100010.98
2018-06-16T07:26:52.226Z,100004.19
2018-06-16T07:29:19.860Z,100007.72
2018-06-16T07:31:47.482Z,100005.45
2018-06-16T07:34:15.066Z,100001.55
2018-06-16T07:36:43.451Z,100000.11
2018-06-16T07:39:11.069Z,99995.19
2018-06-16T07:41:38.815Z,100002.66
2018-06-16T07:44:06.473Z,100001.42
2018-06-16T07:46:34.015Z,99998.14
2018-06-16T07:49:01.840Z,100000.53
2018-06-16T07:51:29.677Z,99997.81
2018-06-16T07:53:57.313Z,100004.78
2018-06-16T07:56:24.929Z,99997.93
2018-06-16T07:58:52.519Z,100000.72
2018-06-16T08:01:20.164Z,100002.44
2018-06-16T08:03:47.818Z,100003.47
2018-06-16T08:06:15.405Z,100012.19
2018-06-16T08:08:43.098Z,100013.45
2018-06-16T08:11:10.699Z,100009.91
2018-06-16T08:13:38.321Z,100008.34
2018-06-16T08:16:05.961Z,100006.96
2018-06-16T08:18:34.087Z,100006.48
2018-06-16T08:21:01.692Z,100013.20
2018-06-16T08:23:29.277Z,100009.92
2018-06-16T08:25:57.015Z,100003.78
2018-06-16T08:28:24.626Z,100010.59
2018-06-16T08:30:52.246Z,100010.14
2018-06-16T08:33:19.878Z,100012.62
2018-06-16T08:35:47.494Z,99998.39
2018-06-16T08:38:15.068Z,100001.27
2018-06-16T08:40:42.608Z,100005.71
2018-06-16T08:43:10.247Z,99993.71
2018-06-16T08:45:37.868Z,99996.22
2018-06-16T08:48:05.527Z,99994.00
2018-06-16T08:50:33.150Z,99989.97
2018-06-16T08:53:00.789Z,99997.38
2018-06-16T08:55:28.508Z,99995.72
2018-06-16T08:57:56.195Z,99999.33
2018-06-16T09:00:24.115Z,99996.40
2018-06-16T09:02:51.901Z,99994.39
2018-06-16T09:05:19.517Z,99992.41
2018-06-16T09:07:47.317Z,99988.20
2018-06-16T09:10:14.996Z,99980.03
2018-06-16T09:12:42.561Z,99985.19
2018-06-16T09:15:10.274Z,99978.16
2018-06-16T09:17:37.928Z,99980.52
2018-06-16T09:20:05.671Z,99981.49
2018-06-16T09:22:33.397Z,99973.59
2018-06-16T09:25:00.988Z,99976.73
2018-06-16T09:27:28.768Z,99966.64
2018-06-16T09:29:56.383Z,99976.46
2018-06-16T09:32:24.394Z,99974.39
2018-06-16T09:34:52.026Z,99973.77
2018-06-16T09:37:19.792Z,99972.70
2018-06-16T09:39:47.369Z,99972.40
2018-06-16T09:42:14.965Z,99966.48
2018-06-16T09:44:42.642Z,99960.58
2018-06-16T09:47:10.487Z,99968.17
2018-06-16T09:49:38.799Z,99963.58
2018-06-16T09:52:06.448Z,99960.38
2018-06-16T09:54:34.039Z,99960.63
2018-06-16T09:57:01.665Z,99960.38
2018-06-16T09:59:29.287Z,99959.75
2018-06-16T10:01:56.922Z,99950.55
2018-06-16T10:04:24.555Z,99955.59
2018-06-16T10:06:52.160Z,99957.66
2018-06-16T10:09:19.880Z,99953.91
2018-06-16T10:11:47.469Z,99954.43
2018-06-16T10:14:15.137Z,99955.48
2018-06-16T10:16:42.742Z,99947.28
2018-06-16T10:19:10.392Z,99948.27
2018-06-16T10:21:38.052Z,99950.23
2018-06-16T10:24:05.903Z,99942.91
2018-06-16T10:26:33.562Z,99935.20
2018-06-16T10:29:01.266Z,99931.23
2018-06-16T10:31:28.910Z,99934.86
2018-06-16T10:33:56.586Z,99937.04
2018-06-16T10:36:24.322Z,99922.16
2018-06-16T10:38:51.933Z,99925.08
2018-06-16T10:41:19.630Z,99926.05
2018-06-16T10:43:47.279Z,99925.11
2018-06-16T10:46:14.893Z,99916.02
2018-06-16T10:48:42.501Z,99918.72
2018-06-16T10:51:10.149Z,99921.59
2018-06-16T10:53:38.073Z,99915.34
2018-06-16T10:56:05.702Z,99912.60
2018-06-16T10:58:33.515Z,99915.69
2018-06-16T11:01:01.175Z,99918.98
2018-06-16T11:03:28.941Z,99907.36
2018-06-16T11:05:56.548Z,99914.64
2018-06-16T11:08:24.168Z,99909.94
2018-06-16T11:10:51.787Z,99910.80
2018-06-16T11:13:19.794Z,99904.27
2018-06-16T11:15:47.429Z,99900.86
2018-06-16T11:18:15.063Z,99902.33
2018-06-16T11:20:42.746Z,99896.29
2018-06-16T11:23:10.470Z,99903.22
2018-06-16T11:25:38.088Z,99895.71
2018-06-16T11:28:05.747Z,99897.83
2018-06-16T11:30:33.404Z,99897.69
2018-06-16T11:33:01.000Z,99893.91
2018-06-16T11:35:28.613Z,99891.83
2018-06-16T11:37:56.222Z,99896.32
2018-06-16T11:40:23.949Z,99893.34
2018-06-16T11:42:51.603Z,99890.34
2018-06-16T11:45:19.253Z,99891.86
2018-06-16T11:47:46.891Z,99890.27
2018-06-16T11:50:14.467Z,99880.63
2018-06-16T11:52:42.097Z,99882.20
2018-06-16T11:55:09.780Z,99881.15
2018-06-16T11:57:37.425Z,99876.59
2018-06-16T12:00:05.087Z,99877.64
2018-06-16T12:02:32.751Z,99870.38
2018-06-16T12:05:00.393Z,99866.11
2018-06-16T12:07:28.114Z,99868.81
2018-06-16T12:09:55.784Z,99866.16
2018-06-16T12:12:23.386Z,99867.03
2018-06-16T12:14:51.110Z,99869.16
2018-06-16T12:17:18.773Z,99868.77
2018-06-16T12:19:46.474Z,99868.52
2018-06-16T12:22:14.172Z,99865.57
2018-06-16T12:24:48.586Z,99863.81
2018-06-16T12:27:16.250Z,99854.86
2018-06-16T12:29:43.996Z,99858.61
2018-06-16T12:32:11.603Z,99856.61
2018-06-16T12:34:39.242Z,99858.34
2018-06-16T12:37:06.904Z,99851.07
2018-06-16T12:39:34.554Z,99845.10
2018-06-16T12:42:02.188Z,99850.35
2018-06-16T12:44:29.856Z,99847.97
2018-06-16T12:46:57.976Z,99857.38
2018-06-16T12:49:26.910Z,99849.27
2018-06-16T12:51:54.821Z,99847.23
2018-06-16T12:54:22.478Z,99842.80
2018-06-16T12:56:50.196Z,99842.80
2018-06-16T12:59:17.760Z,99844.32
2018-06-16T13:01:45.398Z,99849.08
2018-06-16T13:04:13.084Z,99843.25
2018-06-16T13:06:40.773Z,99847.60
2018-06-16T13:09:08.470Z,99849.63
2018-06-16T13:11:36.140Z,99847.63
2018-06-16T13:14:03.903Z,99851.94
2018-06-16T13:16:31.716Z,99841.78
2018-06-16T13:18:59.864Z,99841.74
2018-06-16T13:21:27.745Z,99839.39
2018-06-16T13:23:55.361Z,99842.75
2018-06-16T13:26:22.950Z,99840.72
2018-06-16T13:28:50.617Z,99829.27
2018-06-16T13:31:18.236Z,99831.91
2018-06-16T13:33:45.873Z,99821.91
2018-06-16T13:36:13.490Z,99828.33
2018-06-16T13:38:41.169Z,99817.73
2018-06-16T13:41:08.790Z,99815.98
2018-06-16T13:43:36.468Z,99811.19
2018-06-16T13:46:04.226Z,99812.11
2018-06-16T13:48:31.842Z,99807.78
2018-06-16T13:50:59.475Z,99806.12
2018-06-16T13:53:27.088Z,99809.37
2018-06-16T13:55:55.256Z,99806.92
2018-06-16T13:58:22.964Z,99806.66
2018-06-16T14:00:50.534Z,99806.12
2018-06-16T14:03:18.146Z,99806.66
2018-06-16T14:05:45.766Z,99808.84
2018-06-16T14:08:13.454Z,99811.26
2018-06-16T14:10:41.097Z,99801.20
2018-06-16T14:13:08.734Z,99799.59
2018-06-16T14:15:37.353Z,99794.16
2018-06-16T14:18:05.481Z,99792.78
2018-06-16T14:20:33.097Z,99792.89
2018-06-16T14:23:00.965Z,99793.27
2018-06-16T14:25:28.588Z,99795.02
2018-06-16T14:27:56.342Z,99791.69
2018-06-16T14:30:23.994Z,99790.01
2018-06-16T14:32:51.969Z,99799.33
2018-06-16T14:35:19.595Z,99803.48
2018-06-16T14:37:47.323Z,99811.91
2018-06-16T14:40:15.004Z,99815.09
2018-06-16T14:42:42.571Z,99810.63
2018-06-16T14:45:10.501Z,99809.95
2018-06-16T14:47:38.101Z,99810.03
2018-06-16T14:50:06.601Z,99801.02
2018-06-16T14:52:34.238Z,99799.94
2018-06-16T14:55:01.906Z,99783.62
2018-06-16T14:57:29.590Z,99780.78
2018-06-16T14:59:57.268Z,99766.02
2018-06-16T15:02:24.916Z,99764.19
2018-06-16T15:04:52.670Z,99775.66
2018-06-16T15:07:20.325Z,99777.73
2018-06-16T15:09:48.050Z,99774.08
2018-06-16T15:12:15.750Z,99777.97
2018-06-16T15:14:44.408Z,99781.45
2018-06-16T15:17:12.000Z,99770.77
2018-06-16T15:19:39.631Z,99779.08
2018-06-16T15:22:07.362Z,99781.98
2018-06-16T15:24:35.000Z,99778.38
2018-06-16T15:27:02.876Z,99782.78
2018-06-16T15:29:30.537Z,99778.06
2018-06-16T15:31:58.231Z,99781.77
2018-06-16T15:34:25.823Z,99779.19
2018-06-16T15:36:53.497Z,99773.02
2018-06-16T15:39:21.148Z,99773.65
2018-06-16T15:41:48.809Z,99767.95
2018-06-16T15:44:16.491Z,99768.01
2018-06-16T15:46:44.241Z,99775.08
2018-06-16T15:49:12.873Z,99772.99
2018-06-16T15:51:40.571Z,99776.24
2018-06-16T15:54:08.446Z,99771.93
2018-06-16T15:56:36.071Z,99768.34
2018-06-16T15:59:03.715Z,99764.03
2018-06-16T16:01:31.387Z,99765.82
2018-06-16T16:03:59.046Z,99753.75
2018-06-16T16:06:26.868Z,99740.61
2018-06-16T16:08:54.535Z,99730.29
2018-06-16T16:11:22.110Z,99733.01
2018-06-16T16:13:49.894Z,99738.70
2018-06-16T16:16:17.519Z,99727.79
2018-06-16T16:18:45.221Z,99727.72
2018-06-16T16:21:12.860Z,99720.28
2018-06-16T16:23:40.780Z,99717.41
2018-06-16T16:26:08.430Z,99713.47
2018-06-16T16:28:36.074Z,99718.13
2018-06-16T16:31:03.742Z,99712.63
2018-06-16T16:33:31.379Z,99714.92
2018-06-16T16:35:59.001Z,99715.33
2018-06-16T16:38:26.598Z,99709.42
2018-06-16T16:40:54.177Z,99715.46
2018-06-16T16:43:21.786Z,99722.17
2018-06-16T16:45:49.421Z,99718.05
2018-06-16T16:48:17.083Z,99710.75
2018-06-16T16:50:44.873Z,99711.35
2018-06-16T16:53:12.555Z,99705.31
2018-06-16T16:55:40.113Z,99704.52
2018-06-16T16:58:07.670Z,99701.63
2018-06-16T17:00:35.229Z,99703.02
2018-06-16T17:03:02.860Z,99701.59
2018-06-16T17:05:30.410Z,99699.86
2018-06-16T17:07:58.010Z,99702.45
2018-06-16T17:10:30.053Z,99708.89
2018-06-16T17:12:57.880Z,99702.16
2018-06-16T17:15:25.514Z,99703.46
2018-06-16T17:17:53.126Z,99701.94
2018-06-16T17:20:21.194Z,99704.93
2018-06-16T17:22:48.794Z,99703.46
2018-06-16T17:25:16.476Z,99698.32
2018-06-16T17:27:44.186Z,99700.06
2018-06-16T17:30:11.782Z,99696.02
2018-06-16T17:32:39.462Z,99694.45
2018-06-16T17:35:07.072Z,99691.58
2018-06-16T17:37:34.710Z,99692.73
2018-06-16T17:40:02.411Z,99689.61
2018-06-16T17:42:30.092Z,99690.89
2018-06-16T17:44:57.900Z,99686.95
2018-06-16T17:47:25.766Z,99681.98
2018-06-16T17:49:53.635Z,99688.30
2018-06-16T17:52:21.382Z,99674.15
2018-06-16T17:54:49.005Z,99682.00
2018-06-16T17:57:16.813Z,99682.41
2018-06-16T17:59:44.438Z,99683.95
2018-06-16T18:02:12.015Z,99687.28
2018-06-16T18:04:39.706Z,99687.66
2018-06-16T18:07:07.364Z,99691.60
2018-06-16T18:09:35.050Z,99691.02
2018-06-16T18:12:02.887Z,99693.33
2018-06-16T18:14:30.571Z,99691.05
2018-06-16T18:16:58.240Z,99698.82
2018-06-16T18:19:25.916Z,99696.99
2018-06-16T18:21:53.520Z,99691.91
2018-06-16T18:24:21.150Z,99689.56
2018-06-16T18:26:48.822Z,99691.16
2018-06-16T18:29:16.490Z,99692.85
2018-06-16T18:31:44.139Z,99697.55
2018-06-16T18:34:11.813Z,99700.47
2018-06-16T18:36:39.477Z,99701.95
2018-06-16T18:39:08.586Z,99701.23
2018-06-16T18:41:36.485Z,99705.80
2018-06-16T18:44:04.280Z,99697.77
2018-06-16T18:46:31.991Z,99704.03
2018-06-16T18:48:59.641Z,99701.25
2018-06-16T18:51:27.331Z,99712.59
2018-06-16T18:53:54.925Z,99714.37
2018-06-16T18:56:22.575Z,99710.39
2018-06-16T18:58:50.291Z,99714.38
2018-06-16T19:01:17.927Z,99711.95
2018-06-16T19:03:45.885Z,99718.48
2018-06-16T19:06:13.609Z,99718.00
2018-06-16T19:08:41.274Z,99712.88
2018-06-16T19:11:08.930Z,99714.59
2018-06-16T19:13:37.645Z,99718.81
2018-06-16T19:16:05.617Z,99713.70
2018-06-16T19:18:33.293Z,99720.00
2018-06-16T19:21:01.027Z,99717.48
2018-06-16T19:23:28.758Z,99724.20
2018-06-16T19:25:56.414Z,99725.17
2018-06-16T19:28:24.104Z,99727.54
2018-06-16T19:30:51.774Z,99725.49
2018-06-16T19:33:19.522Z,99730.34
2018-06-16T19:35:47.193Z,99726.83
2018-06-16T19:38:14.938Z,99737.55
2018-06-16T19:40:42.652Z,99737.45
2018-06-16T19:43:10.450Z,99738.88
2018-06-16T19:45:38.128Z,99734.03
2018-06-16T19:48:05.913Z,99733.42
2018-06-16T19:50:33.658Z,99737.06
2018-06-16T19:53:01.318Z,99731.78
2018-06-16T19:55:29.014Z,99724.94
2018-06-16T19:57:56.648Z,99730.23
2018-06-16T20:00:24.246Z,99732.66
2018-06-16T20:02:51.849Z,99733.45
2018-06-16T20:05:19.543Z,99732.34
2018-06-16T20:10:15.435Z,99739.95
2018-06-16T20:12:43.035Z,99732.72
2018-06-16T20:15:10.685Z,99736.88
2018-06-16T20:17:38.418Z,99735.22
2018-06-16T20:20:06.957Z,99736.09
2018-06-16T20:22:34.736Z,99745.73
2018-06-16T20:25:02.355Z,99741.16
2018-06-16T20:27:29.956Z,99741.81
2018-06-16T20:29:57.656Z,99736.47
2018-06-16T20:32:25.325Z,99741.25
2018-06-16T20:34:52.970Z,99739.69
2018-06-16T20:37:20.670Z,99742.67
2018-06-16T20:39:48.528Z,99735.86
2018-06-16T20:42:16.149Z,99745.16
2018-06-16T20:44:44.506Z,99740.96
2018-06-16T20:47:12.148Z,99747.88
2018-06-16T20:49:39.830Z,99745.49
2018-06-16T20:52:07.623Z,99743.01
2018-06-16T20:54:35.258Z,99746.62
2018-06-16T20:57:02.906Z,99747.80
2018-06-16T20:59:30.580Z,99751.59
2018-06-16T21:01:58.455Z,99749.94
2018-06-16T21:04:26.080Z,99758.00
2018-06-16T21:06:53.748Z,99756.13
2018-06-16T21:09:21.395Z,99752.73
2018-06-16T21:11:49.026Z,99751.95
2018-06-16T21:14:17.594Z,99751.66
2018-06-16T21:16:45.217Z,99750.99
2018-06-16T21:19:12.863Z,99756.86
2018-06-16T21:21:40.543Z,99751.89
2018-06-16T21:24:08.175Z,99750.47
2018-06-16T21:26:35.856Z,99745.73
2018-06-16T21:29:03.636Z,99751.68
2018-06-16T21:31:31.244Z,99751.68
2018-06-16T21:33:58.918Z,99750.76
2018-06-16T21:36:26.544Z,99753.97
2018-06-16T21:38:54.116Z,99755.20
2018-06-16T21:41:21.736Z,99764.25
2018-06-16T21:43:49.397Z,99761.76
2018-06-16T21:46:18.039Z,99762.31
2018-06-16T21:48:45.687Z,99762.88
2018-06-16T21:51:14.127Z,99771.86
2018-06-16T21:53:41.763Z,99767.19
2018-06-16T21:56:09.406Z,99770.80
2018-06-16T21:58:37.295Z,99774.02
2018-06-16T22:01:05.162Z,99774.00
2018-06-16T22:03:32.781Z,99771.66
2018-06-16T22:06:01.507Z,99767.28
2018-06-16T22:08:30.889Z,99776.28
2018-06-16T22:10:59.251Z,99773.92
2018-06-16T22:13:27.332Z,99776.80
2018-06-16T22:15:54.952Z,99777.49
2018-06-16T22:18:22.644Z,99778.84
2018-06-16T22:20:50.267Z,99779.50
2018-06-16T22:23:17.943Z,99785.70
2018-06-16T22:25:45.620Z,99785.55
2018-06-16T22:28:13.385Z,99788.27
2018-06-16T22:30:41.064Z,99786.78
2018-06-16T22:33:08.650Z,99787.33
2018-06-16T22:35:36.353Z,99785.89
2018-06-16T22:38:04.311Z,99782.07
2018-06-16T22:40:32.007Z,99784.50
2018-06-16T22:42:59.649Z,99778.02
2018-06-16T22:45:27.239Z,99778.08
2018-06-16T22:47:54.838Z,99778.58
2018-06-16T22:50:22.449Z,99773.42
2018-06-16T22:52:50.618Z,99777.29
2018-06-16T22:55:18.263Z,99778.79
2018-06-16T22:57:45.933Z,99773.34
2018-06-16T23:00:20.627Z,99775.13
2018-06-16T23:02:48.455Z,99775.78
2018-06-16T23:05:16.183Z,99771.59
2018-06-16T23:07:43.785Z,99771.59
2018-06-16T23:10:11.432Z,99771.48
2018-06-16T23:12:39.049Z,99771.75
2018-06-16T23:15:06.701Z,99766.48
2018-06-16T23:17:34.257Z,99770.19
2018-06-16T23:20:02.094Z,99773.23
2018-06-16T23:22:29.715Z,99646.65
2018-06-16T23:24:57.352Z,99767.18
2018-06-16T23:27:24.971Z,99773.50
2018-06-16T23:29:52.616Z,99771.87
2018-06-16T23:32:20.242Z,99766.90
2018-06-16T23:34:47.830Z,99769.72
2018-06-16T23:37:15.488Z,99764.81
2018-06-16T23:39:43.124Z,99768.17
2018-06-16T23:42:10.742Z,99771.80
2018-06-16T23:44:38.439Z,99761.98
2018-06-16T23:47:06.136Z,99763.19
2018-06-16T23:49:33.811Z,99770.96
2018-06-16T23:52:01.432Z,99775.45
2018-06-16T23:54:29.329Z,99776.98
2018-06-16T23:56:56.976Z,99777.64
2018-06-16T23:59:24.773Z,99771.00
